Flight Track Log - Related Links

Times and Time Zones

All times are in EDT time to prevent confusion due to time zone crossing. See the SWA975 flight status page for this flight to view local times or setup timezone preferences in your user account.

Time Position Orientation Groundspeed Altitude Reporting Facility
EDT Latitude Longitude Course Direction KTS MPH feet Rate Location/Type
Fri 09:09:46 PM 37.7167 -122.2500 310° West 139 160 900  Level Northern Cal TRACON
Fri 09:10:46 PM 37.7500 -122.3000 310° West 211 243 2,800 2,263 Climbing Northern Cal TRACON
Fri 09:11:40 PM 37.7333 -122.3667 252° West 225 259 5,200 3,000 Climbing Northern Cal TRACON
Fri 09:12:12 PM 37.7292 -122.4047 262° West 220 253 7,100 2,903 Climbing Oakland Center
Fri 09:13:13 PM 37.6742 -122.4486 212° Southwest 249 287 9,700 2,537 Climbing Oakland Center
Fri 09:14:15 PM 37.5869 -122.4778 195° South 309 356 12,300 2,878 Climbing Oakland Center
Fri 09:15:16 PM 37.4972 -122.4586 170° South 348 400 15,600 3,268 Climbing Oakland Center
Fri 09:16:18 PM 37.4233 -122.3714 137° Southeast 362 417 19,000 3,024 Climbing Oakland Center
Fri 09:17:19 PM 37.3442 -122.2844 139° Southeast 375 432 21,800 2,607 Climbing Oakland Center
Fri 09:18:20 PM 37.2611 -122.1908 138° Southeast 397 457 24,300 2,390 Climbing Oakland Center
Fri 09:19:22 PM 37.1736 -122.0947 139° Southeast 416 479 26,700 2,390 Climbing Oakland Center
Fri 09:20:23 PM 37.0861 -121.9975 138° Southeast 420 483 29,200 1,610 Climbing Oakland Center
Fri 09:21:25 PM 36.9769 -121.8772 139° Southeast 432 497 30,000 1,024 Climbing Oakland Center
Fri 09:22:26 PM 36.8789 -121.7678 138° Southeast 465 535 31,300 1,561 Climbing Oakland Center
Fri 09:23:28 PM 36.7703 -121.6494 139° Southeast 482 555 33,200 1,854 Climbing Oakland Center
Fri 09:24:29 PM 36.6689 -121.5394 139° Southeast 486 559 35,100 1,672 Climbing Oakland Center
Fri 09:25:30 PM 36.5675 -121.4292 139° Southeast 485 558 36,600 1,366 Climbing Oakland Center
Fri 09:26:32 PM 36.4650 -121.3189 139° Southeast 485 558 37,900 1,171 Climbing Oakland Center
Fri 09:27:33 PM 36.3639 -121.2094 139° Southeast 485 558 39,000 541 Climbing Oakland Center
Fri 09:28:34 PM 36.2611 -121.0978 139° Southeast 486 559 39,000  Level Oakland Center
Fri 09:29:36 PM 36.1600 -120.9892 139° Southeast 485 558 39,000  Level Oakland Center
Fri 09:30:37 PM 36.0575 -120.8794 139° Southeast 485 558 39,000  Level Oakland Center
Fri 09:31:38 PM 35.9561 -120.7711 139° Southeast 485 558 39,000  Level Oakland Center
Fri 09:32:40 PM 35.8344 -120.6408 139° Southeast 485 558 39,000  Level Oakland Center
Fri 09:33:41 PM 35.7333 -120.5339 139° Southeast 483 556 39,000  Level Oakland Center
Fri 09:34:42 PM 35.6317 -120.4269 139° Southeast 482 555 39,000 -683 Level Oakland Center
Fri 09:35:44 PM 35.5308 -120.3192 139° Southeast 480 552 37,600 -2,328 Descending Oakland Center
Fri 09:36:56 PM 35.4050 -120.1903 140° Southeast 491 565 33,800 -3,067 Descending Los Angeles Center
Fri 09:37:59 PM 35.2936 -120.0722 139° Southeast 497 572 30,700 -2,640 Descending Los Angeles Center
Fri 09:39:01 PM 35.1889 -119.9650 140° Southeast 495 570 28,300 -1,645 Descending Los Angeles Center
Fri 09:40:03 PM 35.0908 -119.8636 140° Southeast 468 539 27,300 -1,210 Descending Los Angeles Center
Fri 09:41:05 PM 35.0067 -119.7489 132° Southeast 456 525 25,800 -1,645 Descending Los Angeles Center
Fri 09:42:07 PM 34.9247 -119.6372 132° Southeast 448 516 23,900 -2,081 Descending Los Angeles Center
Fri 09:43:09 PM 34.8308 -119.5097 132° Southeast 423 487 21,500 -2,177 Descending Los Angeles Center
Fri 09:44:11 PM 34.7556 -119.4094 132° Southeast 405 466 19,400 -2,081 Descending Los Angeles Center
Fri 09:45:13 PM 34.6825 -119.3111 132° Southeast 396 456 17,200 -2,032 Descending Los Angeles Center
Fri 09:46:15 PM 34.6122 -119.2164 132° Southeast 385 443 15,200 -1,935 Descending Los Angeles Center
Fri 09:47:17 PM 34.5564 -119.1075 122° Southeast 391 450 13,200 -1,935 Descending Los Angeles Center
Fri 09:48:19 PM 34.5006 -119.0036 123° Southeast 372 428 11,200 -1,548 Descending Los Angeles Center
Fri 09:49:21 PM 34.4044 -118.9347 149° Southeast 334 384 10,000 -1,161 Descending Los Angeles Center
Fri 09:50:23 PM 34.3506 -118.8572 130° Southeast 310 357 8,800 -1,306 Descending Los Angeles Center
Fri 09:51:25 PM 34.3025 -118.7819 128° Southeast 287 330 7,300 -1,500 Descending Los Angeles Center
Fri 09:52:27 PM 34.2558 -118.7028 125° Southeast 286 329 5,700 -1,463 Descending Los Angeles Center
Fri 09:53:28 PM 34.2086 -118.6239 126° Southeast 286 329 4,300 -1,122 Descending Los Angeles Center
Fri 09:54:30 PM 34.2006 -118.5364 96° East 278 320 3,400 -774 Descending Los Angeles Center
Fri 09:55:32 PM 34.1997 -118.4606 91° East 249 287 2,700 -968 Descending Los Angeles Center
Fri 09:56:34 PM 34.1986 -118.4047 91° East 169 194 1,400 -919 Descending Los Angeles Center
Fri 09:57:36 PM 34.1978 -118.3686 92° East 157 181 800 -581 Descending Los Angeles Center
Fri 09:59:00 PM 34.2000 -118.3500 90° East  Level FlightAware Approximate
Fri 10:06:00 PM 34.2007 -118.3587 90° East  Level Estimated

Login

Don't have an account? Register now (free) for customized features, flight alerts, and more!